Time;durP1;ratioP1;P1;durP2;ratioP2;P2;SDS_P1;SDS_P2;PMS_P1;PMS_P2;Temp;Humidity;BMP_temperature;BMP_pressure;BME280_temperature;BME280_humidity;BME280_pressure;Samples;Min_cycle;Max_cycle;Signal;HPM_P1;HPM_P2
2022/05/16 00:02:24;;;;;;;1.30;1.20;;;15.90;99.90;;;;;;5071313;28;20201;-60
2022/05/16 00:04:51;;;;;;;1.00;1.00;;;15.90;99.90;;;;;;5069025;28;20185;-60
2022/05/16 00:07:19;;;;;;;1.23;1.23;;;15.90;99.90;;;;;;5072100;28;20207;-58
2022/05/16 00:09:45;;;;;;;1.67;1.20;;;15.80;99.90;;;;;;5063386;28;20269;-55
2022/05/16 00:12:13;;;;;;;1.47;1.37;;;15.80;99.90;;;;;;5071039;28;20308;-56
2022/05/16 00:14:40;;;;;;;1.40;1.30;;;15.80;99.90;;;;;;5068227;28;20178;-55
2022/05/16 00:17:06;;;;;;;1.10;1.10;;;15.70;99.90;;;;;;5069390;28;20173;-56
2022/05/16 00:19:31;;;;;;;1.30;1.30;;;15.70;99.90;;;;;;5070179;28;20181;-60
2022/05/16 00:21:58;;;;;;;2.63;1.17;;;15.70;99.90;;;;;;5070269;28;20228;-54
2022/05/16 00:24:26;;;;;;;1.00;1.00;;;15.60;99.90;;;;;;5071400;28;20233;-60
2022/05/16 00:26:56;;;;;;;0.87;0.87;;;15.60;99.90;;;;;;5068650;28;20177;-55
2022/05/16 00:29:22;;;;;;;1.20;1.10;;;15.40;99.90;;;;;;5071580;28;20181;-55
2022/05/16 00:31:48;;;;;;;1.23;1.13;;;15.40;99.90;;;;;;5069023;28;20193;-58
2022/05/16 00:34:15;;;;;;;3.23;1.23;;;15.40;99.90;;;;;;5071657;28;20177;-54
2022/05/16 00:36:47;;;;;;;3.03;1.13;;;15.40;99.90;;;;;;5069418;28;20184;-57
2022/05/16 00:39:18;;;;;;;3.50;1.20;;;15.40;99.90;;;;;;5070033;28;20185;-54
2022/05/16 00:41:45;;;;;;;2.07;1.50;;;15.40;99.90;;;;;;5071720;28;20234;-49
2022/05/16 00:44:13;;;;;;;1.50;1.40;;;15.30;99.90;;;;;;5067967;28;20225;-55
2022/05/16 00:46:39;;;;;;;1.33;1.13;;;15.20;99.90;;;;;;5071558;28;20198;-54
2022/05/16 00:49:09;;;;;;;3.57;1.33;;;15.20;99.90;;;;;;5065844;28;20195;-53
2022/05/16 00:51:45;;;;;;;2.20;1.43;;;15.20;99.90;;;;;;5075270;28;20177;-46
2022/05/16 00:54:30;;;;;;;2.60;1.30;;;15.20;99.90;;;;;;5071495;28;20185;-54
2022/05/16 00:57:04;;;;;;;1.30;1.30;;;15.20;99.90;;;;;;5072219;28;20585;-57
2022/05/16 00:59:55;;;;;;;1.27;1.20;;;15.10;99.90;;;;;;5073487;28;20184;-56
2022/05/16 01:05:08;;;;;;;2.80;1.20;;;15.10;99.90;;;;;;5090399;28;20192;-57
2022/05/16 01:07:37;;;;;;;1.33;1.23;;;15.10;99.90;;;;;;5075168;28;20192;-58
2022/05/16 01:10:06;;;;;;;3.50;1.57;;;15.10;99.90;;;;;;5072000;28;20185;-57
2022/05/16 01:12:35;;;;;;;1.23;1.20;;;15.10;99.90;;;;;;5074512;28;20237;-61
2022/05/16 01:15:08;;;;;;;2.17;1.37;;;15.10;99.90;;;;;;5071972;28;20272;-54
2022/05/16 01:17:34;;;;;;;1.60;1.50;;;15.10;99.90;;;;;;5074868;28;20185;-56
2022/05/16 01:19:59;;;;;;;2.17;1.50;;;15.10;99.90;;;;;;5073345;28;20184;-61
2022/05/16 01:22:30;;;;;;;1.20;1.20;;;15.10;99.90;;;;;;5067956;28;20205;-56
2022/05/16 01:24:58;;;;;;;2.10;1.50;;;15.10;99.90;;;;;;5074864;28;20189;-56
2022/05/16 01:27:24;;;;;;;1.90;1.80;;;15.00;99.90;;;;;;5071692;28;20224;-53
2022/05/16 01:29:50;;;;;;;1.33;1.33;;;14.90;99.90;;;;;;5074732;28;20202;-49
2022/05/16 01:32:16;;;;;;;1.30;1.30;;;14.80;99.90;;;;;;5072342;28;20169;-50
2022/05/16 01:34:43;;;;;;;1.67;1.67;;;14.70;99.90;;;;;;5074736;28;20208;-52
2022/05/16 01:37:09;;;;;;;1.53;1.43;;;14.70;99.90;;;;;;5072732;28;20220;-59
2022/05/16 01:39:35;;;;;;;1.47;1.30;;;14.80;99.90;;;;;;5073199;28;20181;-47
2022/05/16 01:42:01;;;;;;;2.83;1.60;;;14.70;99.90;;;;;;5073940;28;20189;-52
2022/05/16 01:44:27;;;;;;;1.30;1.30;;;14.70;99.90;;;;;;5071170;28;20288;-46
2022/05/16 01:46:52;;;;;;;1.47;1.37;;;14.70;99.90;;;;;;5074215;28;20329;-49
2022/05/16 01:49:18;;;;;;;3.23;1.43;;;14.70;99.90;;;;;;5070478;28;20279;-53
2022/05/16 01:51:44;;;;;;;1.40;1.30;;;14.70;99.90;;;;;;5074209;28;20177;-49
2022/05/16 01:54:10;;;;;;;2.40;1.50;;;14.60;99.90;;;;;;5071641;28;20177;-52
2022/05/16 01:56:36;;;;;;;1.47;1.40;;;14.60;99.90;;;;;;5073790;28;20177;-49
2022/05/16 01:59:04;;;;;;;1.70;1.40;;;14.60;99.90;;;;;;5072846;28;20181;-59
2022/05/16 02:01:30;;;;;;;2.23;1.30;;;14.50;99.90;;;;;;5070789;28;20193;-55
2022/05/16 02:03:56;;;;;;;1.40;1.30;;;14.50;99.90;;;;;;5074129;28;20227;-51
2022/05/16 02:06:21;;;;;;;1.73;1.63;;;14.50;99.90;;;;;;5070418;28;20198;-50
2022/05/16 02:08:48;;;;;;;2.40;1.50;;;14.50;99.90;;;;;;5073617;28;20192;-50
2022/05/16 02:11:15;;;;;;;3.03;1.50;;;14.40;99.90;;;;;;5070337;28;20343;-50
2022/05/16 02:13:43;;;;;;;1.87;1.47;;;14.50;99.90;;;;;;5073554;28;20252;-50
2022/05/16 02:16:09;;;;;;;2.33;1.33;;;14.50;99.90;;;;;;5072675;28;20271;-55
2022/05/16 02:18:36;;;;;;;1.43;1.30;;;14.50;99.90;;;;;;5072184;28;20169;-49
2022/05/16 02:26:32;;;;;;;1.40;1.30;;;14.30;99.90;;;;;;5088742;28;20177;-56
2022/05/16 02:28:58;;;;;;;1.47;1.30;;;14.30;99.90;;;;;;5071329;28;20192;-55
2022/05/16 02:31:24;;;;;;;2.43;1.60;;;14.20;99.90;;;;;;5072274;28;20174;-49
2022/05/16 02:33:50;;;;;;;3.43;1.53;;;14.20;99.90;;;;;;5073910;28;20276;-55
2022/05/16 02:36:17;;;;;;;1.47;1.47;;;14.20;99.90;;;;;;5070144;28;20260;-53
2022/05/16 02:38:44;;;;;;;1.70;1.60;;;14.10;99.90;;;;;;5073265;28;20264;-56
2022/05/16 02:41:10;;;;;;;1.97;1.87;;;14.10;99.90;;;;;;5069894;28;20173;-52
2022/05/16 02:43:36;;;;;;;1.70;1.60;;;14.20;99.90;;;;;;5072922;28;20201;-53
2022/05/16 02:46:02;;;;;;;4.33;1.50;;;14.00;99.90;;;;;;5070356;28;20185;-57
2022/05/16 02:48:27;;;;;;;2.30;1.60;;;13.90;99.90;;;;;;5072574;28;20222;-49
2022/05/16 02:50:53;;;;;;;1.33;1.33;;;14.00;99.90;;;;;;5069705;28;20180;-56
2022/05/16 02:53:19;;;;;;;1.70;1.60;;;13.90;99.90;;;;;;5070877;28;20177;-50
2022/05/16 02:55:44;;;;;;;2.27;1.60;;;13.90;99.90;;;;;;5073034;28;20181;-48
2022/05/16 02:58:11;;;;;;;1.77;1.43;;;13.90;99.90;;;;;;5069916;28;20193;-54
2022/05/16 03:00:38;;;;;;;2.13;1.83;;;13.90;99.90;;;;;;5072769;28;20247;-47
2022/05/16 03:03:04;;;;;;;1.43;1.43;;;13.80;99.90;;;;;;5070542;28;20224;-50
2022/05/16 03:05:30;;;;;;;2.90;1.20;;;13.70;99.90;;;;;;5073398;28;20836;-56
2022/05/16 03:07:56;;;;;;;4.70;1.90;;;13.60;99.90;;;;;;5071121;28;20254;-58
2022/05/16 03:10:22;;;;;;;1.53;1.43;;;13.70;99.90;;;;;;5070670;28;20170;-52
2022/05/16 03:12:49;;;;;;;3.73;1.70;;;13.60;99.90;;;;;;5071123;28;20231;-54
2022/05/16 03:15:16;;;;;;;2.03;1.80;;;13.50;99.90;;;;;;5068510;28;20192;-52
2022/05/16 03:17:42;;;;;;;2.03;1.90;;;13.50;99.90;;;;;;5089236;28;20184;-49
2022/05/16 03:20:12;;;;;;;1.93;1.73;;;13.60;99.90;;;;;;5069282;28;20180;-50
2022/05/16 03:22:38;;;;;;;1.93;1.60;;;13.60;99.90;;;;;;5072692;28;20239;-54
2022/05/16 03:25:05;;;;;;;1.80;1.70;;;13.70;99.90;;;;;;5070781;28;20283;-59
2022/05/16 03:27:31;;;;;;;2.23;1.60;;;13.70;99.90;;;;;;5070599;28;20176;-47
2022/05/16 03:29:56;;;;;;;3.00;1.67;;;13.70;99.90;;;;;;5072167;28;20180;-57
2022/05/16 03:32:23;;;;;;;1.93;1.83;;;13.60;99.90;;;;;;5070476;28;20175;-54
2022/05/16 03:34:50;;;;;;;1.90;1.80;;;13.60;99.90;;;;;;5072434;28;20182;-54
2022/05/16 03:37:17;;;;;;;3.57;1.90;;;13.70;99.90;;;;;;5084451;28;20189;-54
2022/05/16 03:42:32;;;;;;;2.03;1.83;;;13.70;99.90;;;;;;5087977;28;20208;-57
2022/05/16 03:44:58;;;;;;;1.90;1.80;;;13.70;99.90;;;;;;5070872;28;20187;-59
2022/05/16 03:47:23;;;;;;;3.37;1.50;;;13.70;99.90;;;;;;5090281;28;20283;-54
2022/05/16 03:49:49;;;;;;;2.00;1.80;;;13.70;99.90;;;;;;5070860;28;20260;-51
2022/05/16 03:52:15;;;;;;;1.57;1.57;;;13.60;99.90;;;;;;5073883;28;20279;-57
2022/05/16 03:54:42;;;;;;;1.77;1.57;;;13.60;99.90;;;;;;5070440;28;20285;-57
2022/05/16 03:57:08;;;;;;;4.03;2.00;;;13.70;99.90;;;;;;5073286;28;20243;-53
2022/05/16 03:59:33;;;;;;;2.23;2.00;;;13.70;99.90;;;;;;5071771;28;20185;-61
2022/05/16 04:01:59;;;;;;;3.00;2.53;;;13.70;99.90;;;;;;5072261;28;20208;-57
2022/05/16 04:04:26;;;;;;;2.40;2.00;;;13.70;99.90;;;;;;5073177;28;20177;-57
2022/05/16 04:06:52;;;;;;;2.70;2.00;;;13.70;99.90;;;;;;5066030;28;20181;-58
2022/05/16 04:09:18;;;;;;;2.40;1.90;;;13.70;99.90;;;;;;5072122;28;20216;-58
2022/05/16 04:11:44;;;;;;;4.00;1.70;;;13.70;99.90;;;;;;5067899;28;20271;-60
2022/05/16 04:14:10;;;;;;;2.87;1.70;;;13.60;99.90;;;;;;5071690;28;20271;-48
2022/05/16 04:16:39;;;;;;;1.73;1.63;;;13.60;99.90;;;;;;5069015;28;20169;-61
2022/05/16 04:19:07;;;;;;;5.80;2.10;;;13.70;99.90;;;;;;5070612;28;20189;-52
2022/05/16 04:21:34;;;;;;;14.57;2.70;;;13.80;99.90;;;;;;5070549;28;20241;-59
2022/05/16 04:24:01;;;;;;;2.30;2.20;;;14.00;99.90;;;;;;5069016;28;20212;-58
2022/05/16 04:26:27;;;;;;;2.23;1.80;;;14.00;99.90;;;;;;5071931;28;20181;-59
2022/05/16 04:28:53;;;;;;;2.17;2.00;;;14.10;99.90;;;;;;5068665;28;20181;-56
2022/05/16 04:31:19;;;;;;;3.67;1.73;;;14.20;99.90;;;;;;5071514;28;20176;-56
2022/05/16 04:33:45;;;;;;;2.57;1.70;;;14.30;99.90;;;;;;5068784;28;20185;-60
2022/05/16 04:36:11;;;;;;;2.97;1.60;;;14.40;99.90;;;;;;5071555;28;20263;-53
2022/05/16 04:38:37;;;;;;;2.33;2.13;;;14.50;99.90;;;;;;5069690;28;20212;-60
2022/05/16 04:43:47;;;;;;;2.90;1.77;;;14.70;99.90;;;;;;5086822;28;20240;-55
2022/05/16 04:46:13;;;;;;;1.90;1.80;;;14.80;99.90;;;;;;5067891;28;20228;-56
2022/05/16 04:48:39;;;;;;;2.00;1.90;;;14.70;99.90;;;;;;5071473;28;20264;-53
2022/05/16 04:51:04;;;;;;;1.90;1.80;;;14.80;99.90;;;;;;5068140;28;20177;-51
2022/05/16 04:53:30;;;;;;;2.03;1.93;;;14.80;99.90;;;;;;5070731;28;20180;-54
2022/05/16 04:55:56;;;;;;;2.40;2.20;;;14.90;99.90;;;;;;5069783;28;20264;-51
2022/05/16 04:58:23;;;;;;;2.50;2.30;;;14.80;99.90;;;;;;5069125;28;20253;-50
2022/05/16 05:00:48;;;;;;;2.73;2.10;;;14.90;99.90;;;;;;5071181;28;20239;-53
2022/05/16 05:03:14;;;;;;;3.40;1.93;;;15.00;99.90;;;;;;5065588;28;20228;-51
2022/05/16 05:05:40;;;;;;;2.30;2.20;;;15.10;99.90;;;;;;5071320;28;20185;-52
2022/05/16 05:08:06;;;;;;;3.83;1.93;;;15.20;99.90;;;;;;5067464;28;20324;-49
2022/05/16 05:16:14;;;;;;;3.53;1.93;;;15.20;99.90;;;;;;5083640;28;20176;-52
2022/05/16 05:18:41;;;;;;;2.87;2.03;;;15.40;99.90;;;;;;5098211;28;20249;-51
2022/05/16 05:21:06;;;;;;;3.00;2.00;;;15.50;99.90;;;;;;5084121;28;20299;-48
2022/05/16 05:23:34;;;;;;;2.87;2.20;;;15.70;99.90;;;;;;5076044;28;20292;-51
2022/05/16 05:26:00;;;;;;;5.80;2.37;;;15.60;99.90;;;;;;5069427;28;20256;-52
2022/05/16 05:28:26;;;;;;;2.80;2.07;;;15.60;99.90;;;;;;5068950;28;20174;-50
2022/05/16 05:30:52;;;;;;;3.03;1.90;;;15.60;99.90;;;;;;5070161;28;20248;-51
2022/05/16 05:33:18;;;;;;;2.10;2.00;;;15.80;99.90;;;;;;5067755;28;20193;-50
2022/05/16 05:35:44;;;;;;;2.17;2.07;;;16.00;99.90;;;;;;5069795;28;20179;-52
2022/05/16 05:38:09;;;;;;;2.10;1.90;;;16.20;99.90;;;;;;5062896;28;20201;-57
2022/05/16 05:40:37;;;;;;;2.13;1.90;;;16.40;99.90;;;;;;5078102;28;20311;-54
2022/05/16 05:43:07;;;;;;;2.10;2.00;;;16.50;99.90;;;;;;5074775;28;20216;-52
2022/05/16 05:45:34;;;;;;;1.80;1.70;;;16.70;99.90;;;;;;5073104;28;20186;-50
2022/05/16 05:48:01;;;;;;;2.10;1.70;;;16.70;99.90;;;;;;5073791;28;20183;-51
2022/05/16 05:50:27;;;;;;;1.97;1.83;;;16.80;99.90;;;;;;5069299;28;20200;-52
2022/05/16 05:52:53;;;;;;;1.97;1.63;;;16.90;99.90;;;;;;5069518;28;20214;-50
2022/05/16 05:55:20;;;;;;;2.10;1.90;;;17.00;99.90;;;;;;5087232;28;20219;-53
2022/05/16 05:57:46;;;;;;;2.97;1.70;;;17.00;99.90;;;;;;5074195;28;20207;-51
2022/05/16 06:00:13;;;;;;;2.30;2.10;;;17.00;99.90;;;;;;5071537;28;20228;-52
2022/05/16 06:02:40;;;;;;;2.40;2.13;;;17.10;99.90;;;;;;5073356;28;20217;-54
2022/05/16 06:05:11;;;;;;;2.53;1.93;;;17.20;99.90;;;;;;5072833;28;20193;-58
2022/05/16 06:07:37;;;;;;;2.33;2.23;;;17.20;99.90;;;;;;5072242;28;20198;-54
2022/05/16 06:10:04;;;;;;;3.10;2.13;;;17.30;99.90;;;;;;5075235;28;20181;-56
2022/05/16 06:12:31;;;;;;;3.20;2.10;;;17.20;99.90;;;;;;5070664;28;20252;-59
2022/05/16 06:14:57;;;;;;;2.20;2.00;;;17.20;99.90;;;;;;5075082;28;20185;-52
2022/05/16 06:17:23;;;;;;;7.53;4.03;;;17.50;99.90;;;;;;5105874;28;20204;-50
2022/05/16 06:19:49;;;;;;;5.70;4.00;;;17.70;99.90;;;;;;5107814;28;20181;-54
2022/05/16 06:22:15;;;;;;;6.10;2.83;;;17.90;99.90;;;;;;5072923;28;20200;-58
2022/05/16 06:27:28;;;;;;;2.60;2.40;;;18.20;99.90;;;;;;5091668;28;20188;-52
2022/05/16 06:29:59;;;;;;;3.07;2.60;;;18.30;99.90;;;;;;5071638;28;20208;-52
2022/05/16 06:32:25;;;;;;;4.23;3.37;;;18.50;99.90;;;;;;5074470;28;20177;-55
2022/05/16 06:34:52;;;;;;;10.53;6.10;;;18.60;99.90;;;;;;5072409;28;20189;-52
2022/05/16 06:37:18;;;;;;;2.27;2.07;;;18.70;99.90;;;;;;5073293;28;20197;-50
2022/05/16 06:39:47;;;;;;;2.40;2.20;;;18.90;99.90;;;;;;5073869;28;20181;-57
2022/05/16 06:42:13;;;;;;;1.80;1.70;;;19.00;99.90;;;;;;5070395;28;20253;-59
2022/05/16 06:44:39;;;;;;;3.13;1.93;;;19.10;99.90;;;;;;5073752;28;20181;-56
2022/05/16 06:47:05;;;;;;;5.63;2.20;;;19.10;99.90;;;;;;5069375;28;20193;-49
2022/05/16 06:49:31;;;;;;;3.80;2.30;;;19.20;99.90;;;;;;5073051;28;20725;-50
2022/05/16 06:51:57;;;;;;;4.63;2.47;;;19.40;99.90;;;;;;5071494;28;20182;-50
2022/05/16 06:54:23;;;;;;;3.77;2.20;;;19.40;99.90;;;;;;5073726;28;20183;-55
2022/05/16 06:56:49;;;;;;;3.87;2.57;;;19.60;99.90;;;;;;5072339;28;20220;-52
2022/05/16 06:59:15;;;;;;;5.80;3.47;;;19.50;99.90;;;;;;5072006;28;20218;-54
2022/05/16 07:01:41;;;;;;;12.37;4.60;;;19.60;99.90;;;;;;5071764;28;20192;-48
2022/05/16 07:04:07;;;;;;;3.50;2.27;;;19.60;99.90;;;;;;5071360;28;20227;-56
2022/05/16 07:06:33;;;;;;;2.67;1.80;;;19.80;99.90;;;;;;5073762;28;20196;-55
2022/05/16 07:08:59;;;;;;;2.70;2.00;;;20.00;99.90;;;;;;5070492;28;20263;-57
2022/05/16 07:11:24;;;;;;;3.00;1.80;;;20.20;99.90;;;;;;5073796;28;20326;-51
2022/05/16 07:13:50;;;;;;;3.03;2.07;;;20.10;99.90;;;;;;5071477;28;20208;-58
2022/05/16 07:16:16;;;;;;;4.00;1.90;;;20.10;99.90;;;;;;5072934;28;20189;-57
2022/05/16 07:18:42;;;;;;;3.60;2.13;;;20.40;99.90;;;;;;5073227;28;20250;-54
2022/05/16 07:21:07;;;;;;;3.87;1.77;;;20.70;99.90;;;;;;5071216;28;20327;-56
2022/05/16 07:23:33;;;;;;;5.53;1.80;;;21.10;99.80;;;;;;5073746;28;20212;-51
2022/05/16 07:28:43;;;;;;;8.10;3.75;;;21.60;97.80;;;;;;5090689;28;20177;-59
2022/05/16 07:31:10;;;;;;;2.22;1.63;;;21.60;97.60;;;;;;5071686;28;20189;-60
2022/05/16 07:33:36;;;;;;;1.30;1.15;;;22.10;96.60;;;;;;5072793;28;20212;-45
2022/05/16 07:36:03;;;;;;;2.50;1.30;;;22.30;96.30;;;;;;5073180;28;20181;-50
2022/05/16 07:38:29;;;;;;;3.08;1.30;;;22.70;94.70;;;;;;5070057;28;20198;-47
2022/05/16 07:40:56;;;;;;;1.55;1.20;;;22.40;94.70;;;;;;5073480;28;20189;-53
2022/05/16 07:43:24;;;;;;;1.90;1.77;;;22.20;95.00;;;;;;5070254;28;20213;-49
2022/05/16 07:45:50;;;;;;;3.33;1.83;;;22.40;94.80;;;;;;5073511;28;20189;-52
2022/05/16 07:48:15;;;;;;;1.70;1.60;;;22.40;95.20;;;;;;5070089;28;20258;-50
2022/05/16 07:50:43;;;;;;;5.68;2.67;;;22.40;95.30;;;;;;5072707;28;20263;-49
2022/05/16 07:53:12;;;;;;;2.22;1.30;;;22.60;95.10;;;;;;5072014;28;20192;-60
2022/05/16 07:55:43;;;;;;;1.52;1.40;;;22.90;94.40;;;;;;5070675;28;20184;-49
2022/05/16 07:58:09;;;;;;;1.33;1.30;;;22.60;94.90;;;;;;5072995;28;20185;-57
2022/05/16 08:00:35;;;;;;;1.20;1.20;;;22.60;94.60;;;;;;5068855;28;20189;-57
2022/05/16 08:03:02;;;;;;;1.58;1.40;;;22.70;94.40;;;;;;5073182;28;20221;-47
2022/05/16 08:05:27;;;;;;;2.08;1.33;;;22.90;93.90;;;;;;5070562;28;20188;-56
2022/05/16 08:10:39;;;;;;;4.07;1.50;;;23.00;93.60;;;;;;5089580;28;20259;-55
2022/05/16 08:13:08;;;;;;;3.67;1.80;;;23.20;93.60;;;;;;5069420;28;20258;-52
2022/05/16 08:15:37;;;;;;;1.60;1.50;;;23.20;93.20;;;;;;5073299;28;20244;-50
2022/05/16 08:18:05;;;;;;;1.10;1.10;;;23.30;93.20;;;;;;5069406;28;20204;-49
2022/05/16 08:20:33;;;;;;;1.13;1.13;;;23.40;93.80;;;;;;5073136;28;20189;-55
2022/05/16 08:22:59;;;;;;;5.85;1.35;;;23.40;93.40;;;;;;5069712;28;20208;-51
2022/05/16 08:25:25;;;;;;;2.25;1.42;;;23.20;93.60;;;;;;5071558;28;20203;-51
2022/05/16 08:27:51;;;;;;;1.50;1.50;;;23.20;94.10;;;;;;5072179;28;20173;-59
2022/05/16 08:30:18;;;;;;;1.33;1.23;;;23.00;93.70;;;;;;5069248;28;20166;-60
2022/05/16 08:32:44;;;;;;;1.50;1.50;;;23.00;93.40;;;;;;5068199;28;20196;-53
2022/05/16 08:35:12;;;;;;;1.95;1.30;;;22.90;93.60;;;;;;5064962;28;20181;-57
2022/05/16 08:40:28;;;;;;;1.45;1.35;;;23.40;93.10;;;;;;5085505;28;20180;-59
2022/05/16 08:43:03;;;;;;;2.67;1.17;;;23.50;93.30;;;;;;5067168;28;20212;-49
2022/05/16 08:45:44;;;;;;;1.30;1.30;;;23.60;93.50;;;;;;5071693;28;20230;-52
2022/05/16 08:48:26;;;;;;;1.77;1.60;;;23.60;93.20;;;;;;5069045;28;20208;-58
2022/05/16 08:51:04;;;;;;;1.65;1.55;;;23.30;94.00;;;;;;5072500;28;20185;-48
2022/05/16 08:53:42;;;;;;;1.70;1.60;;;23.50;93.90;;;;;;5071095;28;20192;-53
2022/05/16 08:56:11;;;;;;;2.15;1.55;;;23.40;93.80;;;;;;5069663;28;20256;-55
2022/05/16 08:59:02;;;;;;;2.50;1.55;;;23.40;94.10;;;;;;5071724;28;20177;-57
2022/05/16 09:01:39;;;;;;;1.70;1.50;;;24.00;93.70;;;;;;5069061;28;20205;-55
2022/05/16 09:04:14;;;;;;;1.70;1.60;;;24.60;93.10;;;;;;5072659;28;20285;-54
2022/05/16 09:06:49;;;;;;;1.48;1.38;;;25.00;92.60;;;;;;5072271;28;20213;-55
2022/05/16 09:09:20;;;;;;;1.52;1.42;;;25.10;92.30;;;;;;5067967;28;20196;-59
2022/05/16 09:12:21;;;;;;;1.63;1.52;;;25.00;92.50;;;;;;5073199;28;20224;-53
2022/05/16 09:14:59;;;;;;;1.55;1.55;;;25.40;91.90;;;;;;5009079;28;20194;-57
2022/05/16 09:18:04;;;;;;;1.75;1.65;;;25.50;91.60;;;;;;5009220;28;20187;-49
2022/05/16 09:20:33;;;;;;;2.17;1.45;;;25.60;91.50;;;;;;5008597;28;20191;-49
2022/05/16 09:23:05;;;;;;;2.45;2.25;;;26.50;90.60;;;;;;5008535;28;20258;-52
2022/05/16 09:26:16;;;;;;;1.40;1.40;;;27.30;90.20;;;;;;5011775;28;20195;-53
2022/05/16 09:28:54;;;;;;;4.60;3.40;;;27.20;88.20;;;;;;4977310;28;20212;-50
2022/05/16 09:31:31;;;;;;;1.58;1.45;;;27.00;87.70;;;;;;5008285;28;20187;-56
2022/05/16 09:34:00;;;;;;;2.63;1.73;;;27.10;88.20;;;;;;5011628;28;20218;-50
2022/05/16 09:36:33;;;;;;;3.53;1.60;;;27.30;89.20;;;;;;5009617;28;20228;-60
2022/05/16 09:38:58;;;;;;;6.32;4.20;;;26.50;89.70;;;;;;5009220;28;20188;-46
2022/05/16 09:41:34;;;;;;;1.42;1.33;;;27.20;88.40;;;;;;5010916;28;20283;-57
2022/05/16 09:44:22;;;;;;;1.25;1.25;;;27.40;88.70;;;;;;5008030;28;20218;-51
2022/05/16 09:46:49;;;;;;;1.45;1.35;;;26.80;88.50;;;;;;5015958;28;20175;-53
2022/05/16 09:49:26;;;;;;;1.90;1.40;;;27.50;86.70;;;;;;5057305;28;20220;-57
2022/05/16 09:51:59;;;;;;;1.10;1.10;;;27.60;87.00;;;;;;5072975;28;20177;-57
2022/05/16 09:54:36;;;;;;;4.45;1.63;;;27.60;85.50;;;;;;5074211;28;20187;-54
2022/05/16 09:57:20;;;;;;;1.45;1.35;;;27.80;84.90;;;;;;5071110;28;20177;-58
2022/05/16 10:00:00;;;;;;;1.55;1.40;;;27.10;86.10;;;;;;5073532;28;20177;-57
2022/05/16 10:02:35;;;;;;;3.25;1.38;;;26.50;87.80;;;;;;5072402;28;20213;-60
2022/05/16 10:05:20;;;;;;;2.72;2.00;;;26.60;87.20;;;;;;5072572;28;20184;-49
2022/05/16 10:07:57;;;;;;;1.58;1.48;;;26.40;87.50;;;;;;5108406;28;20185;-54
2022/05/16 10:10:28;;;;;;;1.10;1.05;;;26.10;86.50;;;;;;5066790;28;20169;-48
2022/05/16 10:12:54;;;;;;;2.15;1.55;;;25.80;86.30;;;;;;5070355;28;20218;-47
2022/05/16 10:15:21;;;;;;;1.55;1.45;;;25.00;87.20;;;;;;5069410;28;20215;-53
2022/05/16 10:17:49;;;;;;;3.35;1.48;;;25.70;87.70;;;;;;5068613;28;20177;-54
2022/05/16 10:20:22;;;;;;;1.58;1.48;;;25.30;86.90;;;;;;5070400;28;20182;-59
2022/05/16 10:22:55;;;;;;;1.60;1.50;;;24.80;87.70;;;;;;5061243;28;20266;-58
2022/05/16 10:25:27;;;;;;;1.67;1.42;;;24.70;87.60;;;;;;5069846;28;20265;-50
2022/05/16 10:27:54;;;;;;;4.05;1.88;;;24.30;87.70;;;;;;5098003;28;20174;-56
2022/05/16 10:30:24;;;;;;;2.30;1.88;;;23.90;88.90;;;;;;5069886;28;20182;-54
2022/05/16 10:35:52;;;;;;;1.42;1.42;;;23.60;89.90;;;;;;5083934;28;20189;-45
2022/05/16 10:38:52;;;;;;;3.85;1.42;;;23.50;90.20;;;;;;5070051;28;20190;-49
2022/05/16 10:41:32;;;;;;;1.35;1.35;;;24.10;90.00;;;;;;5063206;28;20186;-52
2022/05/16 10:44:25;;;;;;;3.22;1.55;;;24.30;89.80;;;;;;5063714;28;20262;-51
2022/05/16 10:47:16;;;;;;;2.08;1.90;;;24.80;89.20;;;;;;5065025;28;20240;-51
2022/05/16 10:50:00;;;;;;;1.58;1.50;;;24.50;89.20;;;;;;5067115;28;20188;-50
2022/05/16 10:52:31;;;;;;;1.50;1.05;;;23.20;90.80;;;;;;5067538;28;20210;-49
2022/05/16 10:54:58;;;;;;;1.55;1.50;;;23.00;91.70;;;;;;5069701;28;20185;-49
2022/05/16 10:57:42;;;;;;;2.42;1.90;;;23.30;91.80;;;;;;5066552;28;20209;-48
2022/05/16 11:00:15;;;;;;;1.92;1.70;;;23.50;91.40;;;;;;5069557;28;20221;-55
2022/05/16 11:03:08;;;;;;;1.70;1.60;;;23.00;91.70;;;;;;5067515;28;20274;-53
2022/05/16 11:05:47;;;;;;;1.77;1.60;;;23.00;92.00;;;;;;5099214;28;20201;-55
2022/05/16 11:08:36;;;;;;;1.95;1.70;;;23.20;91.90;;;;;;5069258;28;20435;-51
2022/05/16 11:11:07;;;;;;;1.50;1.40;;;22.70;92.10;;;;;;5067886;28;20181;-60
2022/05/16 11:14:23;;;;;;;3.22;1.67;;;22.50;92.70;;;;;;5072897;28;20192;-55
2022/05/16 11:16:56;;;;;;;1.83;1.73;;;22.90;92.90;;;;;;4963548;28;20190;-51
2022/05/16 11:19:40;;;;;;;1.45;1.38;;;23.20;91.80;;;;;;4949082;28;20228;-49
2022/05/16 11:22:45;;;;;;;1.80;1.70;;;23.90;91.20;;;;;;4969966;28;20189;-52
2022/05/16 11:25:26;;;;;;;3.10;1.67;;;23.80;90.80;;;;;;4969203;28;20308;-55
2022/05/16 11:28:05;;;;;;;1.58;1.48;;;23.20;91.40;;;;;;4966273;28;20192;-50
2022/05/16 11:30:46;;;;;;;1.55;1.55;;;23.30;91.40;;;;;;4982882;28;20185;-45
2022/05/16 11:33:24;;;;;;;1.40;1.40;;;23.30;91.60;;;;;;4951678;28;20216;-52
2022/05/16 11:35:54;;;;;;;1.45;1.30;;;23.50;91.50;;;;;;4967230;28;20490;-49
2022/05/16 11:38:37;;;;;;;1.95;1.60;;;23.60;91.50;;;;;;4968573;28;20200;-49
2022/05/16 11:41:34;;;;;;;1.55;1.45;;;24.00;91.10;;;;;;4966218;28;20373;-50
2022/05/16 11:44:26;;;;;;;1.55;1.55;;;24.30;91.40;;;;;;4968605;28;20212;-55
2022/05/16 11:47:18;;;;;;;3.00;1.70;;;24.00;91.20;;;;;;4969351;28;20205;-50
2022/05/16 11:50:07;;;;;;;1.40;1.40;;;23.60;91.90;;;;;;4942161;29;20206;-57
2022/05/16 11:53:04;;;;;;;1.23;1.20;;;23.80;92.00;;;;;;4979844;28;20702;-56
2022/05/16 12:01:06;;;;;;;2.33;1.70;;;23.80;92.40;;;;;;5043840;28;20635;-55
2022/05/16 12:03:47;;;;;;;1.50;1.40;;;23.40;92.80;;;;;;5009855;28;20247;-60
2022/05/16 12:06:15;;;;;;;3.53;1.55;;;23.50;92.70;;;;;;5021243;28;20176;-59
2022/05/16 12:08:45;;;;;;;1.67;1.58;;;23.60;92.80;;;;;;5005228;28;20187;-50
2022/05/16 12:11:16;;;;;;;1.60;1.50;;;23.10;93.50;;;;;;5007625;28;20187;-56
2022/05/16 12:14:23;;;;;;;1.38;1.38;;;23.20;93.40;;;;;;5011428;28;20241;-52
2022/05/16 12:17:27;;;;;;;1.40;1.40;;;23.80;93.40;;;;;;4984855;28;20189;-58
2022/05/16 12:19:53;;;;;;;1.75;1.55;;;23.90;93.10;;;;;;4942670;29;20202;-55
2022/05/16 12:22:34;;;;;;;1.70;1.60;;;24.10;92.80;;;;;;4946212;29;20194;-54
2022/05/16 12:25:27;;;;;;;1.35;1.30;;;24.20;92.70;;;;;;4913364;29;20202;-50
2022/05/16 12:28:12;;;;;;;1.30;1.30;;;24.40;92.50;;;;;;4941982;29;20209;-49
2022/05/16 12:30:37;;;;;;;1.25;1.15;;;24.50;92.60;;;;;;4946402;29;20266;-50
2022/05/16 12:33:06;;;;;;;1.40;1.30;;;24.70;92.10;;;;;;4942887;29;20182;-50
2022/05/16 12:35:41;;;;;;;1.30;1.23;;;25.00;92.30;;;;;;4929768;29;20222;-57
2022/05/16 12:38:10;;;;;;;1.73;1.58;;;24.90;92.00;;;;;;4929452;29;20257;-51
2022/05/16 12:41:09;;;;;;;1.30;1.30;;;24.90;92.20;;;;;;4944146;29;20301;-58
2022/05/16 12:43:47;;;;;;;1.50;1.50;;;24.40;93.10;;;;;;4946339;29;20226;-52
2022/05/16 12:46:53;;;;;;;1.40;1.40;;;24.50;93.00;;;;;;4945801;28;20182;-49
2022/05/16 12:49:55;;;;;;;0.90;0.90;;;24.80;93.50;;;;;;4972972;28;20204;-53
2022/05/16 12:52:49;;;;;;;1.27;1.27;;;24.50;92.90;;;;;;4991835;28;20192;-52
2022/05/16 12:55:18;;;;;;;1.27;1.17;;;23.70;93.80;;;;;;5013564;28;20238;-55
2022/05/16 12:57:50;;;;;;;1.45;1.20;;;23.40;94.90;;;;;;5050284;28;20178;-54
2022/05/16 13:00:24;;;;;;;1.02;1.02;;;23.10;95.40;;;;;;5052365;28;20198;-54
2022/05/16 13:03:02;;;;;;;1.10;1.10;;;23.00;95.70;;;;;;5048541;28;20285;-54
2022/05/16 13:05:28;;;;;;;1.25;1.10;;;23.30;95.80;;;;;;5049456;28;20191;-51
2022/05/16 13:08:00;;;;;;;1.17;1.13;;;23.30;96.00;;;;;;5039455;28;20190;-58
2022/05/16 13:10:36;;;;;;;1.60;1.10;;;23.10;96.20;;;;;;5050282;28;20195;-51
2022/05/16 13:13:34;;;;;;;1.88;1.27;;;22.90;97.00;;;;;;5052597;28;20210;-50
2022/05/16 13:16:09;;;;;;;1.80;1.70;;;22.80;97.90;;;;;;5043520;28;20333;-51
2022/05/16 13:18:45;;;;;;;1.67;1.58;;;22.10;99.90;;;;;;5039346;28;20316;-53
2022/05/16 13:21:15;;;;;;;4.33;1.70;;;22.00;99.90;;;;;;5053771;28;20198;-60
2022/05/16 13:23:41;;;;;;;1.73;1.47;;;21.70;99.90;;;;;;5045267;28;20298;-55
2022/05/16 13:31:44;;;;;;;2.07;1.97;;;21.70;99.90;;;;;;5067525;28;20186;-57
2022/05/16 13:34:12;;;;;;;2.23;1.73;;;21.50;99.90;;;;;;5050438;28;20240;-54
2022/05/16 13:36:46;;;;;;;2.90;1.63;;;21.50;99.90;;;;;;5049606;28;20235;-52
2022/05/16 13:39:14;;;;;;;1.80;1.70;;;21.60;99.90;;;;;;5051458;28;20289;-58
2022/05/16 13:41:41;;;;;;;1.70;1.60;;;21.80;99.90;;;;;;5048570;28;20186;-58
2022/05/16 13:44:12;;;;;;;1.80;1.70;;;21.80;99.90;;;;;;5053277;28;20217;-54
2022/05/16 13:46:38;;;;;;;1.30;1.30;;;22.00;99.90;;;;;;5045462;28;20183;-59
2022/05/16 13:49:08;;;;;;;1.67;1.58;;;22.20;99.90;;;;;;5050611;28;20189;-55
2022/05/16 13:51:51;;;;;;;2.63;1.50;;;22.70;99.90;;;;;;5050765;28;20186;-56